Kelowna Airport
CYLW : now visible

Airfield :











YOU CAN JOIN US ON...

 
LOGIN :

Register | Disclaimer

   EN    FR    IT 

 









Legend :    VFR   Marginal VFR   IFR   Intensive IFR   Very Intensive IFR
Visi :
Ceiling :
>= 8 km
>= 3000ft
5 to 8 km
1000 to 3000 ft
1500m to 5 km
500 to 1000 ft
800 to 1500m
200 to 500 ft
< 800m
< 200 ft
Symbols :   Thunderstorms  Fog  Heavy snow  Heavy precipitations  Wind > 20 kt






- Airport Elevation : 1409 ft
- IATA code : YLW


CYLW - Kelowna

CURRENT METAR :
  • 141500Z AUTO 36006KT 350V070 9SM CLR 07/01 A2995 RMK SLP149

EXPIRED METARs :
  • 141400Z AUTO 36003KT 9SM CLR 01/M01 A2994 RMK SLP150
  • 141300Z AUTO VRB02KT 9SM CLR 01/M01 A2993 RMK SLP143
  • 141200Z AUTO 05003KT 9SM CLR 02/M01 A2991 RMK SLP137
  • 141100Z AUTO 02004KT 9SM CLR 02/M01 A2991 RMK SLP135

TAF TAF CYLW
Valid from the 14 at 13:00 until the 15 at 01:00 UTC


141240Z 1413/1501 03005KT P6SM FEW240 RMK FCST BASED ON AUTO OBS. NXT FCST BY 141900Z
CZVR FIR / North America



MET'MAP, your aeronautical weather chart ! - Copyright ORBIFLY December 2007 - Disclaimer

ORBIFLY MET'MAP TEAM :

Programming & Development : Alexandra Zaïnal
Original concept : Baudouin d'Aumeries
Technical & hardware support : Manuel Goepfert
Assistance : Marc-Olivier Méhu




SOURCES & CREDITS :

   NOAA       Earth
Advisory